sim
Sign-in with your pilot id or email,
or register
Callsign
Passwort

Schedule Details

Flight Number: RYR806 (2)
Departure: Knock Ireland West Airport (EIKN) at 09:05
Arrival: London Stansted Airport (EGSS) at 10:30
Route: Ryanair Passenger Schedule. Enter filed route here before submitting Pirep.

Weather Information
Getting current METAR information for EIKN 201530Z 32006KT 9999 FEW010 FEW020CB 03/02 Q0979 NOSIG
Getting current METAR information for EGSS 241520Z AUTO 09008KT 1900 -SN BKN003/// BKN007/// BKN011/// //////TCU 01/00 Q0994

Schedule Frequency

Route Map